sensor_id;sensor_type;location;lat;lon;timestamp;P1;durP1;ratioP1;P2;durP2;ratioP2
7657;SDS011;8462;53.156;8.220;2022-09-29T00:02:26;11.80;;;8.33;;
7657;SDS011;8462;53.156;8.220;2022-09-29T00:04:53;14.47;;;9.20;;
7657;SDS011;8462;53.156;8.220;2022-09-29T00:07:19;15.60;;;9.87;;
7657;SDS011;8462;53.156;8.220;2022-09-29T00:09:46;17.30;;;8.63;;
7657;SDS011;8462;53.156;8.220;2022-09-29T00:12:13;15.90;;;8.27;;
7657;SDS011;8462;53.156;8.220;2022-09-29T00:14:40;17.90;;;10.33;;
7657;SDS011;8462;53.156;8.220;2022-09-29T00:17:07;14.40;;;9.23;;
7657;SDS011;8462;53.156;8.220;2022-09-29T00:19:35;14.80;;;8.87;;
7657;SDS011;8462;53.156;8.220;2022-09-29T00:22:02;15.77;;;8.80;;
7657;SDS011;8462;53.156;8.220;2022-09-29T00:24:30;18.80;;;11.10;;
7657;SDS011;8462;53.156;8.220;2022-09-29T00:26:58;19.37;;;11.70;;
7657;SDS011;8462;53.156;8.220;2022-09-29T00:29:25;21.93;;;12.03;;
7657;SDS011;8462;53.156;8.220;2022-09-29T00:31:52;23.90;;;12.87;;
7657;SDS011;8462;53.156;8.220;2022-09-29T00:34:19;19.30;;;10.53;;
7657;SDS011;8462;53.156;8.220;2022-09-29T00:36:47;13.87;;;8.90;;
7657;SDS011;8462;53.156;8.220;2022-09-29T00:39:15;15.67;;;9.33;;
7657;SDS011;8462;53.156;8.220;2022-09-29T00:41:42;20.20;;;10.97;;
7657;SDS011;8462;53.156;8.220;2022-09-29T00:47:10;21.03;;;11.13;;
7657;SDS011;8462;53.156;8.220;2022-09-29T00:49:41;19.53;;;10.47;;
7657;SDS011;8462;53.156;8.220;2022-09-29T00:52:12;17.97;;;10.37;;
7657;SDS011;8462;53.156;8.220;2022-09-29T00:54:44;17.70;;;9.30;;
7657;SDS011;8462;53.156;8.220;2022-09-29T00:57:14;16.33;;;10.03;;
7657;SDS011;8462;53.156;8.220;2022-09-29T00:59:46;15.47;;;9.40;;
7657;SDS011;8462;53.156;8.220;2022-09-29T01:02:16;18.97;;;9.90;;
7657;SDS011;8462;53.156;8.220;2022-09-29T01:04:45;16.23;;;9.37;;
7657;SDS011;8462;53.156;8.220;2022-09-29T01:07:14;14.57;;;8.83;;
7657;SDS011;8462;53.156;8.220;2022-09-29T01:09:41;15.37;;;8.23;;
7657;SDS011;8462;53.156;8.220;2022-09-29T01:12:09;12.53;;;8.70;;
7657;SDS011;8462;53.156;8.220;2022-09-29T01:14:36;12.77;;;8.57;;
7657;SDS011;8462;53.156;8.220;2022-09-29T01:17:04;12.87;;;8.40;;
7657;SDS011;8462;53.156;8.220;2022-09-29T01:19:34;11.83;;;8.07;;
7657;SDS011;8462;53.156;8.220;2022-09-29T01:22:10;10.87;;;7.37;;
7657;SDS011;8462;53.156;8.220;2022-09-29T01:25:04;10.97;;;7.47;;
7657;SDS011;8462;53.156;8.220;2022-09-29T01:27:59;14.83;;;8.03;;
7657;SDS011;8462;53.156;8.220;2022-09-29T01:30:48;14.23;;;7.40;;
7657;SDS011;8462;53.156;8.220;2022-09-29T01:33:29;9.53;;;7.57;;
7657;SDS011;8462;53.156;8.220;2022-09-29T01:36:04;14.43;;;8.17;;
7657;SDS011;8462;53.156;8.220;2022-09-29T01:38:50;10.17;;;7.60;;
7657;SDS011;8462;53.156;8.220;2022-09-29T01:41:27;9.37;;;7.07;;
7657;SDS011;8462;53.156;8.220;2022-09-29T01:44:01;12.23;;;7.40;;
7657;SDS011;8462;53.156;8.220;2022-09-29T01:46:36;13.00;;;7.37;;
7657;SDS011;8462;53.156;8.220;2022-09-29T01:49:06;11.47;;;7.67;;
7657;SDS011;8462;53.156;8.220;2022-09-29T01:51:35;12.83;;;8.27;;
7657;SDS011;8462;53.156;8.220;2022-09-29T01:54:08;12.20;;;8.03;;
7657;SDS011;8462;53.156;8.220;2022-09-29T01:56:40;11.20;;;7.10;;
7657;SDS011;8462;53.156;8.220;2022-09-29T01:59:13;10.43;;;7.50;;
7657;SDS011;8462;53.156;8.220;2022-09-29T02:01:46;10.10;;;7.53;;
7657;SDS011;8462;53.156;8.220;2022-09-29T02:04:17;12.60;;;7.17;;
7657;SDS011;8462;53.156;8.220;2022-09-29T02:06:51;11.47;;;6.70;;
7657;SDS011;8462;53.156;8.220;2022-09-29T02:09:22;11.27;;;7.77;;
7657;SDS011;8462;53.156;8.220;2022-09-29T02:11:52;11.53;;;7.60;;
7657;SDS011;8462;53.156;8.220;2022-09-29T02:14:21;10.03;;;7.40;;
7657;SDS011;8462;53.156;8.220;2022-09-29T02:16:51;10.13;;;7.20;;
7657;SDS011;8462;53.156;8.220;2022-09-29T02:19:24;10.47;;;7.90;;
7657;SDS011;8462;53.156;8.220;2022-09-29T02:21:54;10.30;;;7.27;;
7657;SDS011;8462;53.156;8.220;2022-09-29T02:24:21;11.47;;;7.03;;
7657;SDS011;8462;53.156;8.220;2022-09-29T02:26:49;11.33;;;7.50;;
7657;SDS011;8462;53.156;8.220;2022-09-29T02:29:17;9.90;;;6.60;;
7657;SDS011;8462;53.156;8.220;2022-09-29T02:31:44;11.57;;;6.80;;
7657;SDS011;8462;53.156;8.220;2022-09-29T02:34:15;10.90;;;7.57;;
7657;SDS011;8462;53.156;8.220;2022-09-29T02:36:47;11.27;;;6.67;;
7657;SDS011;8462;53.156;8.220;2022-09-29T02:39:25;8.67;;;6.43;;
7657;SDS011;8462;53.156;8.220;2022-09-29T02:42:03;11.03;;;6.60;;
7657;SDS011;8462;53.156;8.220;2022-09-29T02:44:45;9.07;;;6.77;;
7657;SDS011;8462;53.156;8.220;2022-09-29T02:50:22;9.73;;;6.47;;
7657;SDS011;8462;53.156;8.220;2022-09-29T02:53:02;9.27;;;6.50;;
7657;SDS011;8462;53.156;8.220;2022-09-29T02:55:36;11.67;;;7.10;;
7657;SDS011;8462;53.156;8.220;2022-09-29T02:58:09;8.60;;;6.50;;
7657;SDS011;8462;53.156;8.220;2022-09-29T03:00:40;7.87;;;6.37;;
7657;SDS011;8462;53.156;8.220;2022-09-29T03:03:09;9.73;;;6.63;;
7657;SDS011;8462;53.156;8.220;2022-09-29T03:05:37;9.70;;;6.90;;
7657;SDS011;8462;53.156;8.220;2022-09-29T03:08:04;9.60;;;6.47;;
7657;SDS011;8462;53.156;8.220;2022-09-29T03:10:31;10.40;;;7.07;;
7657;SDS011;8462;53.156;8.220;2022-09-29T03:12:58;9.80;;;6.60;;
7657;SDS011;8462;53.156;8.220;2022-09-29T03:15:25;8.40;;;6.50;;
7657;SDS011;8462;53.156;8.220;2022-09-29T03:17:53;10.43;;;6.90;;
7657;SDS011;8462;53.156;8.220;2022-09-29T03:20:22;9.00;;;6.43;;
7657;SDS011;8462;53.156;8.220;2022-09-29T03:22:50;7.80;;;6.23;;
7657;SDS011;8462;53.156;8.220;2022-09-29T03:25:23;11.87;;;7.47;;
7657;SDS011;8462;53.156;8.220;2022-09-29T03:27:49;10.50;;;7.00;;
7657;SDS011;8462;53.156;8.220;2022-09-29T03:30:17;8.70;;;6.30;;
7657;SDS011;8462;53.156;8.220;2022-09-29T03:32:44;10.83;;;6.97;;
7657;SDS011;8462;53.156;8.220;2022-09-29T03:35:11;8.77;;;6.33;;
7657;SDS011;8462;53.156;8.220;2022-09-29T03:37:38;10.80;;;6.67;;
7657;SDS011;8462;53.156;8.220;2022-09-29T03:40:07;10.57;;;7.30;;
7657;SDS011;8462;53.156;8.220;2022-09-29T03:42:35;9.93;;;7.23;;
7657;SDS011;8462;53.156;8.220;2022-09-29T03:45:02;10.10;;;7.27;;
7657;SDS011;8462;53.156;8.220;2022-09-29T03:47:29;9.17;;;6.27;;
7657;SDS011;8462;53.156;8.220;2022-09-29T03:49:56;9.10;;;6.90;;
7657;SDS011;8462;53.156;8.220;2022-09-29T03:52:23;9.93;;;7.23;;
7657;SDS011;8462;53.156;8.220;2022-09-29T03:54:50;11.07;;;7.23;;
7657;SDS011;8462;53.156;8.220;2022-09-29T03:57:18;9.33;;;7.17;;
7657;SDS011;8462;53.156;8.220;2022-09-29T03:59:45;10.40;;;7.30;;
7657;SDS011;8462;53.156;8.220;2022-09-29T04:02:12;9.80;;;6.57;;
7657;SDS011;8462;53.156;8.220;2022-09-29T04:04:42;10.97;;;6.93;;
7657;SDS011;8462;53.156;8.220;2022-09-29T04:07:09;9.87;;;6.70;;
7657;SDS011;8462;53.156;8.220;2022-09-29T04:09:36;8.97;;;6.50;;
7657;SDS011;8462;53.156;8.220;2022-09-29T04:12:03;11.67;;;6.80;;
7657;SDS011;8462;53.156;8.220;2022-09-29T04:14:32;8.57;;;6.80;;
7657;SDS011;8462;53.156;8.220;2022-09-29T04:16:58;8.53;;;6.60;;
7657;SDS011;8462;53.156;8.220;2022-09-29T04:19:25;10.83;;;6.90;;
7657;SDS011;8462;53.156;8.220;2022-09-29T04:21:52;14.80;;;8.03;;
7657;SDS011;8462;53.156;8.220;2022-09-29T04:24:19;9.53;;;6.67;;
7657;SDS011;8462;53.156;8.220;2022-09-29T04:26:46;8.03;;;6.90;;
7657;SDS011;8462;53.156;8.220;2022-09-29T04:29:13;10.43;;;7.60;;
7657;SDS011;8462;53.156;8.220;2022-09-29T04:31:41;9.80;;;7.03;;
7657;SDS011;8462;53.156;8.220;2022-09-29T04:34:08;11.53;;;6.67;;
7657;SDS011;8462;53.156;8.220;2022-09-29T04:36:35;10.33;;;7.30;;
7657;SDS011;8462;53.156;8.220;2022-09-29T04:39:02;10.70;;;7.73;;
7657;SDS011;8462;53.156;8.220;2022-09-29T04:41:29;13.17;;;7.60;;
7657;SDS011;8462;53.156;8.220;2022-09-29T04:43:58;11.43;;;7.63;;
7657;SDS011;8462;53.156;8.220;2022-09-29T04:46:26;9.20;;;7.80;;
7657;SDS011;8462;53.156;8.220;2022-09-29T04:48:55;9.90;;;8.10;;
7657;SDS011;8462;53.156;8.220;2022-09-29T04:51:22;12.07;;;8.17;;
7657;SDS011;8462;53.156;8.220;2022-09-29T04:53:49;10.80;;;7.90;;
7657;SDS011;8462;53.156;8.220;2022-09-29T04:56:17;9.10;;;7.00;;
7657;SDS011;8462;53.156;8.220;2022-09-29T04:58:44;10.30;;;7.87;;
7657;SDS011;8462;53.156;8.220;2022-09-29T05:01:11;13.73;;;8.43;;
7657;SDS011;8462;53.156;8.220;2022-09-29T05:03:38;10.93;;;7.30;;
7657;SDS011;8462;53.156;8.220;2022-09-29T05:06:06;10.70;;;7.83;;
7657;SDS011;8462;53.156;8.220;2022-09-29T05:08:34;10.13;;;8.20;;
7657;SDS011;8462;53.156;8.220;2022-09-29T05:11:02;14.07;;;7.47;;
7657;SDS011;8462;53.156;8.220;2022-09-29T05:13:30;10.27;;;7.43;;
7657;SDS011;8462;53.156;8.220;2022-09-29T05:15:57;12.17;;;8.07;;
7657;SDS011;8462;53.156;8.220;2022-09-29T05:18:24;13.53;;;7.87;;
7657;SDS011;8462;53.156;8.220;2022-09-29T05:20:51;14.13;;;8.73;;
7657;SDS011;8462;53.156;8.220;2022-09-29T05:23:19;12.27;;;7.90;;
7657;SDS011;8462;53.156;8.220;2022-09-29T05:25:47;10.50;;;7.47;;
7657;SDS011;8462;53.156;8.220;2022-09-29T05:28:15;13.20;;;8.73;;
7657;SDS011;8462;53.156;8.220;2022-09-29T05:30:42;13.33;;;8.77;;
7657;SDS011;8462;53.156;8.220;2022-09-29T05:33:09;11.40;;;8.23;;
7657;SDS011;8462;53.156;8.220;2022-09-29T05:35:36;11.70;;;7.90;;
7657;SDS011;8462;53.156;8.220;2022-09-29T05:38:03;13.33;;;8.30;;
7657;SDS011;8462;53.156;8.220;2022-09-29T05:40:31;14.50;;;8.37;;
7657;SDS011;8462;53.156;8.220;2022-09-29T05:42:58;19.00;;;9.57;;
7657;SDS011;8462;53.156;8.220;2022-09-29T05:45:25;11.40;;;8.50;;
7657;SDS011;8462;53.156;8.220;2022-09-29T05:47:53;17.97;;;11.37;;
7657;SDS011;8462;53.156;8.220;2022-09-29T05:50:21;13.90;;;9.27;;
7657;SDS011;8462;53.156;8.220;2022-09-29T05:52:48;10.93;;;8.83;;
7657;SDS011;8462;53.156;8.220;2022-09-29T05:55:17;13.43;;;9.00;;
7657;SDS011;8462;53.156;8.220;2022-09-29T05:57:47;13.47;;;8.90;;
7657;SDS011;8462;53.156;8.220;2022-09-29T06:00:14;10.70;;;8.27;;
7657;SDS011;8462;53.156;8.220;2022-09-29T06:02:41;12.37;;;8.03;;
7657;SDS011;8462;53.156;8.220;2022-09-29T06:05:08;11.80;;;8.33;;
7657;SDS011;8462;53.156;8.220;2022-09-29T06:07:35;13.03;;;8.37;;
7657;SDS011;8462;53.156;8.220;2022-09-29T06:10:02;11.53;;;8.43;;
7657;SDS011;8462;53.156;8.220;2022-09-29T06:12:32;13.20;;;8.47;;
7657;SDS011;8462;53.156;8.220;2022-09-29T06:15:01;9.93;;;7.53;;
7657;SDS011;8462;53.156;8.220;2022-09-29T06:17:29;15.30;;;8.67;;
7657;SDS011;8462;53.156;8.220;2022-09-29T06:19:56;12.40;;;8.97;;
7657;SDS011;8462;53.156;8.220;2022-09-29T06:22:23;13.97;;;8.17;;
7657;SDS011;8462;53.156;8.220;2022-09-29T06:24:51;13.07;;;8.40;;
7657;SDS011;8462;53.156;8.220;2022-09-29T06:27:18;13.50;;;8.77;;
7657;SDS011;8462;53.156;8.220;2022-09-29T06:29:45;14.13;;;9.03;;
7657;SDS011;8462;53.156;8.220;2022-09-29T06:32:14;14.10;;;8.87;;
7657;SDS011;8462;53.156;8.220;2022-09-29T06:34:41;11.23;;;8.17;;
7657;SDS011;8462;53.156;8.220;2022-09-29T06:37:22;13.37;;;8.67;;
7657;SDS011;8462;53.156;8.220;2022-09-29T06:40:01;12.67;;;8.60;;
7657;SDS011;8462;53.156;8.220;2022-09-29T06:42:29;11.10;;;8.63;;
7657;SDS011;8462;53.156;8.220;2022-09-29T06:44:56;11.87;;;8.47;;
7657;SDS011;8462;53.156;8.220;2022-09-29T06:47:25;11.77;;;8.87;;
7657;SDS011;8462;53.156;8.220;2022-09-29T06:49:52;13.33;;;8.63;;
7657;SDS011;8462;53.156;8.220;2022-09-29T06:52:18;13.90;;;8.60;;
7657;SDS011;8462;53.156;8.220;2022-09-29T06:54:45;12.73;;;8.17;;
7657;SDS011;8462;53.156;8.220;2022-09-29T06:57:12;12.17;;;8.30;;
7657;SDS011;8462;53.156;8.220;2022-09-29T06:59:39;15.00;;;8.30;;
7657;SDS011;8462;53.156;8.220;2022-09-29T07:02:07;11.90;;;8.80;;
7657;SDS011;8462;53.156;8.220;2022-09-29T07:04:36;13.63;;;9.50;;
7657;SDS011;8462;53.156;8.220;2022-09-29T07:07:03;11.97;;;8.50;;
7657;SDS011;8462;53.156;8.220;2022-09-29T07:09:30;12.13;;;8.47;;
7657;SDS011;8462;53.156;8.220;2022-09-29T07:11:57;13.57;;;8.37;;
7657;SDS011;8462;53.156;8.220;2022-09-29T07:14:24;12.63;;;9.37;;
7657;SDS011;8462;53.156;8.220;2022-09-29T07:16:51;15.97;;;9.47;;
7657;SDS011;8462;53.156;8.220;2022-09-29T07:19:19;14.60;;;9.20;;
7657;SDS011;8462;53.156;8.220;2022-09-29T07:21:48;14.10;;;10.07;;
7657;SDS011;8462;53.156;8.220;2022-09-29T07:24:15;13.47;;;9.87;;
7657;SDS011;8462;53.156;8.220;2022-09-29T07:26:42;12.30;;;9.50;;
7657;SDS011;8462;53.156;8.220;2022-09-29T07:29:10;14.57;;;8.80;;
7657;SDS011;8462;53.156;8.220;2022-09-29T07:31:37;13.17;;;9.93;;
7657;SDS011;8462;53.156;8.220;2022-09-29T07:34:04;14.67;;;9.27;;
7657;SDS011;8462;53.156;8.220;2022-09-29T07:36:31;12.87;;;9.63;;
7657;SDS011;8462;53.156;8.220;2022-09-29T07:39:00;13.37;;;9.73;;
7657;SDS011;8462;53.156;8.220;2022-09-29T07:41:27;11.37;;;9.33;;
7657;SDS011;8462;53.156;8.220;2022-09-29T07:43:54;12.03;;;9.40;;
7657;SDS011;8462;53.156;8.220;2022-09-29T07:46:20;12.73;;;9.37;;
7657;SDS011;8462;53.156;8.220;2022-09-29T07:48:48;13.07;;;9.77;;
7657;SDS011;8462;53.156;8.220;2022-09-29T07:51:16;13.57;;;9.80;;
7657;SDS011;8462;53.156;8.220;2022-09-29T07:53:44;12.80;;;9.83;;
7657;SDS011;8462;53.156;8.220;2022-09-29T07:56:16;12.97;;;9.77;;
7657;SDS011;8462;53.156;8.220;2022-09-29T07:58:45;12.77;;;9.27;;
7657;SDS011;8462;53.156;8.220;2022-09-29T08:01:14;14.20;;;10.00;;
7657;SDS011;8462;53.156;8.220;2022-09-29T08:03:47;12.63;;;10.37;;
7657;SDS011;8462;53.156;8.220;2022-09-29T08:06:15;14.17;;;11.27;;
7657;SDS011;8462;53.156;8.220;2022-09-29T08:08:43;14.30;;;10.30;;
7657;SDS011;8462;53.156;8.220;2022-09-29T08:11:12;13.03;;;10.30;;
7657;SDS011;8462;53.156;8.220;2022-09-29T08:13:45;14.70;;;10.63;;
7657;SDS011;8462;53.156;8.220;2022-09-29T08:16:13;14.83;;;10.70;;
7657;SDS011;8462;53.156;8.220;2022-09-29T08:18:40;14.60;;;10.30;;
7657;SDS011;8462;53.156;8.220;2022-09-29T08:21:07;16.60;;;12.40;;
7657;SDS011;8462;53.156;8.220;2022-09-29T08:23:38;14.40;;;10.17;;
7657;SDS011;8462;53.156;8.220;2022-09-29T08:26:07;13.50;;;10.57;;
7657;SDS011;8462;53.156;8.220;2022-09-29T08:28:37;17.40;;;10.70;;
7657;SDS011;8462;53.156;8.220;2022-09-29T08:31:04;13.90;;;10.10;;
7657;SDS011;8462;53.156;8.220;2022-09-29T08:33:33;15.17;;;10.20;;
7657;SDS011;8462;53.156;8.220;2022-09-29T08:36:00;14.20;;;10.90;;
7657;SDS011;8462;53.156;8.220;2022-09-29T08:38:30;14.60;;;11.17;;
7657;SDS011;8462;53.156;8.220;2022-09-29T08:41:03;16.43;;;11.27;;
7657;SDS011;8462;53.156;8.220;2022-09-29T08:43:32;14.57;;;11.17;;
7657;SDS011;8462;53.156;8.220;2022-09-29T08:46:06;15.50;;;10.53;;
7657;SDS011;8462;53.156;8.220;2022-09-29T08:48:39;14.20;;;10.33;;
7657;SDS011;8462;53.156;8.220;2022-09-29T08:51:11;14.80;;;11.70;;
7657;SDS011;8462;53.156;8.220;2022-09-29T08:53:50;14.83;;;10.33;;
7657;SDS011;8462;53.156;8.220;2022-09-29T08:56:20;15.47;;;11.53;;
7657;SDS011;8462;53.156;8.220;2022-09-29T08:58:47;14.20;;;10.10;;
7657;SDS011;8462;53.156;8.220;2022-09-29T09:01:19;16.67;;;11.43;;
7657;SDS011;8462;53.156;8.220;2022-09-29T09:03:55;17.03;;;11.97;;
7657;SDS011;8462;53.156;8.220;2022-09-29T09:06:55;17.03;;;12.13;;
7657;SDS011;8462;53.156;8.220;2022-09-29T09:12:25;14.77;;;10.90;;
7657;SDS011;8462;53.156;8.220;2022-09-29T09:20:51;17.40;;;11.83;;
7657;SDS011;8462;53.156;8.220;2022-09-29T09:23:26;15.33;;;11.47;;
7657;SDS011;8462;53.156;8.220;2022-09-29T09:25:58;15.43;;;11.33;;
7657;SDS011;8462;53.156;8.220;2022-09-29T09:28:28;14.77;;;10.93;;
7657;SDS011;8462;53.156;8.220;2022-09-29T09:30:59;14.20;;;10.67;;
7657;SDS011;8462;53.156;8.220;2022-09-29T09:33:35;12.57;;;10.13;;
7657;SDS011;8462;53.156;8.220;2022-09-29T09:36:08;12.13;;;9.47;;
7657;SDS011;8462;53.156;8.220;2022-09-29T09:38:44;12.90;;;9.47;;
7657;SDS011;8462;53.156;8.220;2022-09-29T09:41:16;12.87;;;9.57;;
7657;SDS011;8462;53.156;8.220;2022-09-29T09:43:47;13.10;;;10.17;;
7657;SDS011;8462;53.156;8.220;2022-09-29T09:46:19;16.20;;;11.57;;
7657;SDS011;8462;53.156;8.220;2022-09-29T09:48:56;11.63;;;9.70;;
7657;SDS011;8462;53.156;8.220;2022-09-29T09:51:32;12.07;;;8.87;;
7657;SDS011;8462;53.156;8.220;2022-09-29T09:54:08;11.67;;;8.80;;
7657;SDS011;8462;53.156;8.220;2022-09-29T09:56:41;13.17;;;8.93;;
7657;SDS011;8462;53.156;8.220;2022-09-29T09:59:22;11.97;;;9.37;;
7657;SDS011;8462;53.156;8.220;2022-09-29T10:01:59;10.17;;;8.27;;
7657;SDS011;8462;53.156;8.220;2022-09-29T10:04:27;11.23;;;9.00;;
7657;SDS011;8462;53.156;8.220;2022-09-29T10:06:55;11.00;;;8.30;;
7657;SDS011;8462;53.156;8.220;2022-09-29T10:09:22;10.63;;;8.27;;
7657;SDS011;8462;53.156;8.220;2022-09-29T10:11:49;11.93;;;8.37;;
7657;SDS011;8462;53.156;8.220;2022-09-29T10:14:23;9.30;;;7.80;;
7657;SDS011;8462;53.156;8.220;2022-09-29T10:16:53;11.33;;;8.00;;
7657;SDS011;8462;53.156;8.220;2022-09-29T10:19:23;10.83;;;7.50;;
7657;SDS011;8462;53.156;8.220;2022-09-29T10:22:22;10.03;;;7.70;;
7657;SDS011;8462;53.156;8.220;2022-09-29T10:24:50;11.50;;;8.00;;
7657;SDS011;8462;53.156;8.220;2022-09-29T10:27:22;8.83;;;7.00;;
7657;SDS011;8462;53.156;8.220;2022-09-29T10:29:54;12.50;;;8.97;;
7657;SDS011;8462;53.156;8.220;2022-09-29T10:32:24;10.00;;;7.70;;
7657;SDS011;8462;53.156;8.220;2022-09-29T10:35:04;9.23;;;7.77;;
7657;SDS011;8462;53.156;8.220;2022-09-29T10:37:40;10.67;;;7.90;;
7657;SDS011;8462;53.156;8.220;2022-09-29T10:40:13;9.43;;;7.97;;
7657;SDS011;8462;53.156;8.220;2022-09-29T10:42:45;10.13;;;7.63;;
7657;SDS011;8462;53.156;8.220;2022-09-29T10:45:15;9.80;;;7.27;;
7657;SDS011;8462;53.156;8.220;2022-09-29T10:47:43;9.13;;;7.57;;
7657;SDS011;8462;53.156;8.220;2022-09-29T10:50:15;9.07;;;6.80;;
7657;SDS011;8462;53.156;8.220;2022-09-29T10:52:46;9.87;;;7.57;;
7657;SDS011;8462;53.156;8.220;2022-09-29T10:55:17;10.10;;;6.90;;
7657;SDS011;8462;53.156;8.220;2022-09-29T10:57:46;9.50;;;6.67;;
7657;SDS011;8462;53.156;8.220;2022-09-29T11:00:27;9.50;;;7.07;;
7657;SDS011;8462;53.156;8.220;2022-09-29T11:03:00;11.07;;;7.30;;
7657;SDS011;8462;53.156;8.220;2022-09-29T11:05:33;8.57;;;6.73;;
7657;SDS011;8462;53.156;8.220;2022-09-29T11:08:01;9.57;;;6.13;;
7657;SDS011;8462;53.156;8.220;2022-09-29T11:10:30;7.80;;;6.23;;
7657;SDS011;8462;53.156;8.220;2022-09-29T11:13:00;8.63;;;5.90;;
7657;SDS011;8462;53.156;8.220;2022-09-29T11:16:04;7.47;;;6.00;;
7657;SDS011;8462;53.156;8.220;2022-09-29T11:18:39;6.43;;;5.50;;
7657;SDS011;8462;53.156;8.220;2022-09-29T11:21:13;7.10;;;5.67;;
7657;SDS011;8462;53.156;8.220;2022-09-29T11:24:12;7.53;;;5.47;;
7657;SDS011;8462;53.156;8.220;2022-09-29T11:26:46;7.83;;;5.73;;
7657;SDS011;8462;53.156;8.220;2022-09-29T11:29:21;5.63;;;5.03;;
7657;SDS011;8462;53.156;8.220;2022-09-29T11:32:05;7.63;;;5.90;;
7657;SDS011;8462;53.156;8.220;2022-09-29T11:34:58;6.43;;;4.70;;
7657;SDS011;8462;53.156;8.220;2022-09-29T11:37:43;6.27;;;4.77;;
7657;SDS011;8462;53.156;8.220;2022-09-29T11:40:25;6.80;;;4.97;;
7657;SDS011;8462;53.156;8.220;2022-09-29T11:43:07;4.87;;;3.93;;
7657;SDS011;8462;53.156;8.220;2022-09-29T11:45:55;4.90;;;4.27;;
7657;SDS011;8462;53.156;8.220;2022-09-29T11:48:37;5.30;;;4.27;;
7657;SDS011;8462;53.156;8.220;2022-09-29T11:51:22;6.50;;;5.20;;
7657;SDS011;8462;53.156;8.220;2022-09-29T11:54:00;8.43;;;5.20;;
7657;SDS011;8462;53.156;8.220;2022-09-29T11:56:42;5.70;;;4.30;;
7657;SDS011;8462;53.156;8.220;2022-09-29T11:59:23;4.77;;;4.27;;
7657;SDS011;8462;53.156;8.220;2022-09-29T12:02:18;8.43;;;4.60;;
7657;SDS011;8462;53.156;8.220;2022-09-29T12:04:59;7.07;;;5.00;;
7657;SDS011;8462;53.156;8.220;2022-09-29T12:07:40;7.90;;;5.00;;
7657;SDS011;8462;53.156;8.220;2022-09-29T12:10:17;5.07;;;4.37;;
7657;SDS011;8462;53.156;8.220;2022-09-29T12:12:58;6.03;;;4.53;;
7657;SDS011;8462;53.156;8.220;2022-09-29T12:15:38;4.73;;;4.00;;
7657;SDS011;8462;53.156;8.220;2022-09-29T12:18:12;6.77;;;4.20;;
7657;SDS011;8462;53.156;8.220;2022-09-29T12:20:42;6.27;;;4.37;;
7657;SDS011;8462;53.156;8.220;2022-09-29T12:23:12;5.20;;;3.70;;
7657;SDS011;8462;53.156;8.220;2022-09-29T12:25:47;5.17;;;4.33;;
7657;SDS011;8462;53.156;8.220;2022-09-29T12:28:25;5.50;;;3.97;;
7657;SDS011;8462;53.156;8.220;2022-09-29T12:30:57;5.60;;;4.27;;
7657;SDS011;8462;53.156;8.220;2022-09-29T12:33:28;4.97;;;3.40;;
7657;SDS011;8462;53.156;8.220;2022-09-29T12:39:16;4.20;;;3.60;;
7657;SDS011;8462;53.156;8.220;2022-09-29T12:41:52;4.67;;;3.50;;
7657;SDS011;8462;53.156;8.220;2022-09-29T12:44:24;4.63;;;3.10;;
7657;SDS011;8462;53.156;8.220;2022-09-29T12:46:57;2.73;;;2.20;;
7657;SDS011;8462;53.156;8.220;2022-09-29T12:49:31;2.93;;;2.23;;
7657;SDS011;8462;53.156;8.220;2022-09-29T12:52:04;5.00;;;2.47;;
7657;SDS011;8462;53.156;8.220;2022-09-29T12:54:41;4.50;;;2.30;;
7657;SDS011;8462;53.156;8.220;2022-09-29T12:57:14;4.20;;;2.90;;
7657;SDS011;8462;53.156;8.220;2022-09-29T12:59:46;3.77;;;1.90;;
7657;SDS011;8462;53.156;8.220;2022-09-29T13:02:36;2.83;;;2.00;;
7657;SDS011;8462;53.156;8.220;2022-09-29T13:05:22;3.13;;;1.80;;
7657;SDS011;8462;53.156;8.220;2022-09-29T13:08:12;3.57;;;2.47;;
7657;SDS011;8462;53.156;8.220;2022-09-29T13:10:57;2.30;;;2.10;;
7657;SDS011;8462;53.156;8.220;2022-09-29T13:16:32;3.97;;;2.30;;
7657;SDS011;8462;53.156;8.220;2022-09-29T13:19:26;3.87;;;2.47;;
7657;SDS011;8462;53.156;8.220;2022-09-29T13:22:25;3.13;;;2.57;;
7657;SDS011;8462;53.156;8.220;2022-09-29T13:25:04;2.90;;;2.53;;
7657;SDS011;8462;53.156;8.220;2022-09-29T13:27:42;3.57;;;1.97;;
7657;SDS011;8462;53.156;8.220;2022-09-29T13:30:14;2.80;;;2.00;;
7657;SDS011;8462;53.156;8.220;2022-09-29T13:32:43;2.90;;;2.27;;
7657;SDS011;8462;53.156;8.220;2022-09-29T13:35:14;4.07;;;2.27;;
7657;SDS011;8462;53.156;8.220;2022-09-29T13:37:45;2.50;;;1.80;;
7657;SDS011;8462;53.156;8.220;2022-09-29T13:40:16;2.63;;;1.60;;
7657;SDS011;8462;53.156;8.220;2022-09-29T13:42:46;2.73;;;2.00;;
7657;SDS011;8462;53.156;8.220;2022-09-29T13:51:29;3.90;;;2.10;;
7657;SDS011;8462;53.156;8.220;2022-09-29T14:00:03;2.67;;;2.20;;
7657;SDS011;8462;53.156;8.220;2022-09-29T14:05:53;2.10;;;1.70;;
7657;SDS011;8462;53.156;8.220;2022-09-29T14:08:35;3.07;;;1.70;;
7657;SDS011;8462;53.156;8.220;2022-09-29T14:11:15;2.27;;;1.80;;
7657;SDS011;8462;53.156;8.220;2022-09-29T14:13:47;3.37;;;1.93;;
7657;SDS011;8462;53.156;8.220;2022-09-29T14:16:28;2.60;;;1.93;;
7657;SDS011;8462;53.156;8.220;2022-09-29T14:19:06;4.17;;;1.97;;
7657;SDS011;8462;53.156;8.220;2022-09-29T14:21:44;3.03;;;1.50;;
7657;SDS011;8462;53.156;8.220;2022-09-29T14:27:30;3.07;;;2.13;;
7657;SDS011;8462;53.156;8.220;2022-09-29T14:30:09;2.47;;;2.03;;
7657;SDS011;8462;53.156;8.220;2022-09-29T14:32:41;3.43;;;1.97;;
7657;SDS011;8462;53.156;8.220;2022-09-29T14:35:16;3.10;;;2.43;;
7657;SDS011;8462;53.156;8.220;2022-09-29T14:38:00;3.60;;;2.60;;
7657;SDS011;8462;53.156;8.220;2022-09-29T14:40:30;2.63;;;2.30;;
7657;SDS011;8462;53.156;8.220;2022-09-29T14:45:59;2.87;;;1.27;;
7657;SDS011;8462;53.156;8.220;2022-09-29T14:52:35;1.33;;;1.23;;
7657;SDS011;8462;53.156;8.220;2022-09-29T14:55:11;2.60;;;1.90;;
7657;SDS011;8462;53.156;8.220;2022-09-29T14:57:55;2.03;;;1.83;;
7657;SDS011;8462;53.156;8.220;2022-09-29T15:00:41;2.97;;;1.50;;
7657;SDS011;8462;53.156;8.220;2022-09-29T15:03:18;1.87;;;1.60;;
7657;SDS011;8462;53.156;8.220;2022-09-29T15:06:01;1.50;;;1.03;;
7657;SDS011;8462;53.156;8.220;2022-09-29T15:08:32;1.40;;;1.30;;
7657;SDS011;8462;53.156;8.220;2022-09-29T15:11:00;1.20;;;1.10;;
7657;SDS011;8462;53.156;8.220;2022-09-29T15:13:29;3.53;;;1.57;;
7657;SDS011;8462;53.156;8.220;2022-09-29T15:15:57;1.70;;;1.50;;
7657;SDS011;8462;53.156;8.220;2022-09-29T15:18:47;1.70;;;1.47;;
7657;SDS011;8462;53.156;8.220;2022-09-29T15:21:25;2.63;;;1.60;;
7657;SDS011;8462;53.156;8.220;2022-09-29T15:26:59;2.50;;;1.70;;
7657;SDS011;8462;53.156;8.220;2022-09-29T15:29:27;2.50;;;1.60;;
7657;SDS011;8462;53.156;8.220;2022-09-29T15:31:54;2.17;;;1.70;;
7657;SDS011;8462;53.156;8.220;2022-09-29T15:34:23;2.80;;;2.07;;
7657;SDS011;8462;53.156;8.220;2022-09-29T15:36:51;2.43;;;1.90;;
7657;SDS011;8462;53.156;8.220;2022-09-29T15:42:16;2.77;;;1.90;;
7657;SDS011;8462;53.156;8.220;2022-09-29T15:44:52;2.47;;;2.00;;
7657;SDS011;8462;53.156;8.220;2022-09-29T15:47:28;3.67;;;1.90;;
7657;SDS011;8462;53.156;8.220;2022-09-29T15:50:03;2.67;;;2.00;;
7657;SDS011;8462;53.156;8.220;2022-09-29T15:52:41;3.37;;;2.30;;
7657;SDS011;8462;53.156;8.220;2022-09-29T15:55:11;3.53;;;2.27;;
7657;SDS011;8462;53.156;8.220;2022-09-29T15:57:41;3.50;;;2.37;;
7657;SDS011;8462;53.156;8.220;2022-09-29T16:03:14;3.97;;;2.63;;
7657;SDS011;8462;53.156;8.220;2022-09-29T16:05:51;5.93;;;3.77;;
7657;SDS011;8462;53.156;8.220;2022-09-29T16:08:24;4.23;;;2.33;;
7657;SDS011;8462;53.156;8.220;2022-09-29T16:10:55;3.77;;;2.63;;
7657;SDS011;8462;53.156;8.220;2022-09-29T16:13:24;4.47;;;2.80;;
7657;SDS011;8462;53.156;8.220;2022-09-29T16:15:53;4.73;;;2.43;;
7657;SDS011;8462;53.156;8.220;2022-09-29T16:18:24;3.00;;;2.43;;
7657;SDS011;8462;53.156;8.220;2022-09-29T16:20:55;2.93;;;2.63;;
7657;SDS011;8462;53.156;8.220;2022-09-29T16:23:25;4.20;;;2.50;;
7657;SDS011;8462;53.156;8.220;2022-09-29T16:28:59;3.10;;;2.40;;
7657;SDS011;8462;53.156;8.220;2022-09-29T16:31:30;4.43;;;3.13;;
7657;SDS011;8462;53.156;8.220;2022-09-29T16:33:58;3.73;;;3.07;;